createdAt,value
2023-09-28T00:00:35.710Z,8.50
2023-09-28T00:03:05.318Z,11.07
2023-09-28T00:05:32.825Z,10.02
2023-09-28T00:08:01.735Z,9.77
2023-09-28T00:10:32.810Z,10.95
2023-09-28T00:13:00.736Z,10.95
2023-09-28T00:15:27.628Z,12.55
2023-09-28T00:17:56.240Z,11.27
2023-09-28T00:20:24.754Z,14.93
2023-09-28T00:22:53.110Z,13.50
2023-09-28T00:25:23.233Z,10.00
2023-09-28T00:27:54.295Z,12.30
2023-09-28T00:30:23.685Z,12.80
2023-09-28T00:32:53.552Z,10.65
2023-09-28T00:35:21.341Z,10.35
2023-09-28T00:37:50.583Z,10.40
2023-09-28T00:40:19.756Z,10.90
2023-09-28T00:42:49.676Z,17.13
2023-09-28T00:45:18.855Z,12.23
2023-09-28T00:47:48.481Z,13.55
2023-09-28T00:50:16.841Z,12.13
2023-09-28T00:52:47.310Z,11.27
2023-09-28T00:55:16.607Z,9.80
2023-09-28T00:57:45.651Z,14.38
2023-09-28T01:00:19.583Z,12.20
2023-09-28T01:02:52.637Z,15.82
2023-09-28T01:05:19.913Z,13.52
2023-09-28T01:07:48.037Z,14.25
2023-09-28T01:10:21.179Z,10.52
2023-09-28T01:12:49.910Z,13.25
2023-09-28T01:15:17.978Z,10.30
2023-09-28T01:17:46.522Z,12.43
2023-09-28T01:20:19.502Z,12.00
2023-09-28T01:22:51.194Z,13.98
2023-09-28T01:25:20.521Z,12.75
2023-09-28T01:27:48.842Z,9.75
2023-09-28T01:30:17.111Z,13.20
2023-09-28T01:32:45.387Z,13.30
2023-09-28T01:35:12.672Z,11.38
2023-09-28T01:37:52.549Z,9.93
2023-09-28T01:40:19.983Z,10.05
2023-09-28T01:42:47.868Z,11.20
2023-09-28T01:45:15.854Z,9.98
2023-09-28T01:47:43.815Z,15.63
2023-09-28T01:50:11.556Z,9.65
2023-09-28T01:52:39.515Z,14.77
2023-09-28T01:55:08.304Z,11.02
2023-09-28T01:57:36.086Z,14.05
2023-09-28T02:00:06.621Z,15.77
2023-09-28T02:02:35.641Z,11.80
2023-09-28T02:05:04.027Z,16.65
2023-09-28T02:07:36.498Z,13.07
2023-09-28T02:10:04.943Z,14.00
2023-09-28T02:12:34.131Z,16.20
2023-09-28T02:15:06.256Z,11.70
2023-09-28T02:17:34.094Z,13.10
2023-09-28T02:20:01.006Z,10.85
2023-09-28T02:22:28.829Z,15.52
2023-09-28T02:24:55.885Z,13.70
2023-09-28T02:27:23.673Z,11.90
2023-09-28T02:29:51.836Z,12.02
2023-09-28T02:32:19.665Z,10.43
2023-09-28T02:34:46.522Z,15.55
2023-09-28T02:37:14.899Z,11.45
2023-09-28T02:39:42.320Z,9.77
2023-09-28T02:42:10.542Z,13.82
2023-09-28T02:44:37.440Z,12.93
2023-09-28T02:47:07.358Z,15.18
2023-09-28T02:49:34.404Z,16.83
2023-09-28T02:52:03.073Z,11.27
2023-09-28T02:54:30.927Z,13.02
2023-09-28T02:56:58.982Z,12.05
2023-09-28T02:59:27.781Z,15.20
2023-09-28T03:01:56.331Z,12.00
2023-09-28T03:04:25.395Z,11.88
2023-09-28T03:06:53.678Z,10.68
2023-09-28T03:09:21.121Z,10.57
2023-09-28T03:11:50.235Z,13.73
2023-09-28T03:14:17.885Z,10.75
2023-09-28T03:16:45.750Z,12.68
2023-09-28T03:19:12.627Z,9.93
2023-09-28T03:21:43.578Z,9.90
2023-09-28T03:24:10.456Z,16.58
2023-09-28T03:26:39.167Z,15.27
2023-09-28T03:29:06.102Z,14.15
2023-09-28T03:31:36.442Z,14.57
2023-09-28T03:34:03.287Z,11.18
2023-09-28T03:36:33.368Z,11.85
2023-09-28T03:39:02.583Z,9.30
2023-09-28T03:41:32.112Z,13.23
2023-09-28T03:43:59.927Z,14.45
2023-09-28T03:46:28.374Z,10.77
2023-09-28T03:48:56.190Z,12.38
2023-09-28T03:51:24.300Z,14.70
2023-09-28T03:53:52.302Z,14.73
2023-09-28T03:56:22.587Z,10.77
2023-09-28T03:58:50.406Z,9.65
2023-09-28T04:01:18.465Z,11.65
2023-09-28T04:03:46.304Z,15.27
2023-09-28T04:06:14.271Z,10.80
2023-09-28T04:08:42.128Z,13.00
2023-09-28T04:11:10.026Z,10.20
2023-09-28T04:13:39.244Z,12.00
2023-09-28T04:16:07.091Z,12.80
2023-09-28T04:18:34.977Z,11.70
2023-09-28T04:21:02.924Z,16.17
2023-09-28T04:23:31.272Z,11.88
2023-09-28T04:25:59.114Z,13.52
2023-09-28T04:28:26.961Z,13.23
2023-09-28T04:30:56.083Z,9.77
2023-09-28T04:33:23.873Z,16.75
2023-09-28T04:35:51.743Z,12.82
2023-09-28T04:38:19.604Z,13.38
2023-09-28T04:40:47.467Z,11.25
2023-09-28T04:43:15.366Z,14.15
2023-09-28T04:45:43.244Z,12.38
2023-09-28T04:48:12.385Z,13.10
2023-09-28T04:50:40.496Z,10.73
2023-09-28T04:53:08.772Z,12.93
2023-09-28T04:55:36.570Z,13.70
2023-09-28T04:58:04.617Z,9.57
2023-09-28T05:00:33.935Z,10.77
2023-09-28T05:03:04.954Z,10.63
2023-09-28T05:05:34.619Z,11.55
2023-09-28T05:08:03.197Z,15.02
2023-09-28T05:10:31.175Z,12.48
2023-09-28T05:12:59.536Z,10.25
2023-09-28T05:15:27.385Z,13.40
2023-09-28T05:17:55.357Z,14.02
2023-09-28T05:20:25.085Z,15.20
2023-09-28T05:22:55.678Z,15.93
2023-09-28T05:25:23.590Z,9.45
2023-09-28T05:27:51.476Z,10.57
2023-09-28T05:30:19.530Z,17.95
2023-09-28T05:32:47.359Z,11.35
2023-09-28T05:35:16.273Z,15.75
2023-09-28T05:37:44.106Z,11.30
2023-09-28T05:40:14.008Z,14.20
2023-09-28T05:42:42.228Z,11.90
2023-09-28T05:45:11.372Z,15.20
2023-09-28T05:47:39.221Z,15.35
2023-09-28T05:50:08.475Z,13.13
2023-09-28T05:52:36.417Z,14.95
2023-09-28T05:55:04.775Z,10.35
2023-09-28T05:57:34.074Z,10.15
2023-09-28T06:00:08.145Z,13.80
2023-09-28T06:02:36.115Z,11.98
2023-09-28T06:05:05.696Z,23.13
2023-09-28T06:07:33.572Z,15.73
2023-09-28T06:10:01.407Z,16.52
2023-09-28T06:12:29.490Z,21.80
2023-09-28T06:14:59.854Z,20.63
2023-09-28T06:17:27.749Z,16.88
2023-09-28T06:19:58.288Z,22.35
2023-09-28T06:22:26.763Z,19.48
2023-09-28T06:24:55.937Z,14.98
2023-09-28T06:27:23.746Z,14.68
2023-09-28T06:29:54.517Z,17.02
2023-09-28T06:32:24.698Z,13.80
2023-09-28T06:34:52.756Z,15.45
2023-09-28T06:37:20.558Z,11.45
2023-09-28T06:39:48.458Z,9.57
2023-09-28T06:42:34.850Z,12.77
2023-09-28T06:45:04.902Z,13.45
2023-09-28T06:47:50.643Z,15.57
2023-09-28T06:50:21.978Z,15.88
2023-09-28T06:52:52.863Z,19.65
2023-09-28T06:55:20.832Z,22.38
2023-09-28T06:57:49.795Z,15.93
2023-09-28T07:00:18.854Z,12.10
2023-09-28T07:02:48.719Z,16.10
2023-09-28T07:05:17.712Z,13.30
2023-09-28T07:07:49.885Z,14.05
2023-09-28T07:10:18.911Z,19.45
2023-09-28T07:12:48.416Z,14.48
2023-09-28T07:15:16.264Z,17.73
2023-09-28T07:17:44.245Z,11.10
2023-09-28T07:20:16.316Z,14.75
2023-09-28T07:22:44.308Z,13.93
2023-09-28T07:25:12.224Z,12.88
2023-09-28T07:27:40.332Z,25.77
2023-09-28T07:30:09.816Z,19.65
2023-09-28T07:32:37.852Z,13.60
2023-09-28T07:35:06.792Z,18.85
2023-09-28T07:37:36.057Z,17.10
2023-09-28T07:40:05.672Z,12.63
2023-09-28T07:42:33.536Z,19.33
2023-09-28T07:45:01.334Z,21.23
2023-09-28T07:47:30.145Z,19.55
2023-09-28T07:49:58.173Z,20.73
2023-09-28T07:52:26.336Z,33.30
2023-09-28T07:54:55.896Z,33.13
2023-09-28T07:57:23.717Z,31.73
2023-09-28T07:59:51.513Z,22.13
2023-09-28T08:02:20.074Z,21.27
2023-09-28T08:04:50.714Z,20.17
2023-09-28T08:07:18.728Z,22.75
2023-09-28T08:09:46.678Z,29.90
2023-09-28T08:12:16.039Z,29.77
2023-09-28T08:14:43.887Z,23.58
2023-09-28T08:17:13.709Z,20.75
2023-09-28T08:19:41.594Z,14.90
2023-09-28T08:22:09.405Z,16.35
2023-09-28T08:24:37.237Z,15.48
2023-09-28T08:27:05.462Z,15.40
2023-09-28T08:29:35.881Z,13.07
2023-09-28T08:32:03.980Z,15.38
2023-09-28T08:34:38.742Z,13.90
2023-09-28T08:37:07.684Z,10.82
2023-09-28T08:39:37.208Z,13.82
2023-09-28T08:42:08.268Z,15.35
2023-09-28T08:44:39.701Z,14.48
2023-09-28T08:47:16.869Z,14.82
2023-09-28T08:49:46.513Z,11.55
2023-09-28T08:52:16.110Z,13.50
2023-09-28T08:54:44.289Z,14.55
2023-09-28T08:57:13.129Z,16.33
2023-09-28T08:59:43.616Z,12.23
2023-09-28T09:02:13.109Z,12.13
2023-09-28T09:04:41.088Z,12.68
2023-09-28T09:07:08.942Z,10.57
2023-09-28T09:09:38.564Z,8.15
2023-09-28T09:12:10.330Z,10.68
2023-09-28T09:14:39.061Z,10.70
2023-09-28T09:17:11.862Z,11.27
2023-09-28T09:19:41.930Z,10.35
2023-09-28T09:22:09.899Z,9.75
2023-09-28T09:24:54.976Z,13.73
2023-09-28T09:27:27.452Z,12.38
2023-09-28T09:32:28.025Z,11.77
2023-09-28T09:34:56.536Z,9.38
2023-09-28T09:37:24.676Z,12.70
2023-09-28T09:39:52.492Z,7.97
2023-09-28T09:42:29.739Z,8.65
2023-09-28T09:44:57.601Z,9.45
2023-09-28T09:47:28.404Z,9.02
2023-09-28T09:49:58.098Z,9.82
2023-09-28T09:52:27.970Z,8.02
2023-09-28T09:54:56.009Z,7.35
2023-09-28T09:57:25.996Z,10.18
2023-09-28T09:59:55.974Z,11.77
2023-09-28T10:02:26.611Z,8.88
2023-09-28T10:04:56.761Z,10.05
2023-09-28T10:07:46.560Z,7.47
2023-09-28T10:10:16.739Z,9.02
2023-09-28T10:12:44.796Z,6.85
2023-09-28T10:15:14.255Z,7.72
2023-09-28T10:17:43.062Z,7.65
2023-09-28T10:20:14.568Z,8.63
2023-09-28T10:22:42.801Z,8.23
2023-09-28T10:25:13.248Z,7.63
2023-09-28T10:27:41.639Z,8.95
2023-09-28T10:30:20.325Z,7.35
2023-09-28T10:32:48.692Z,7.32
2023-09-28T10:35:29.498Z,13.18
2023-09-28T10:38:28.726Z,7.15
2023-09-28T10:41:08.012Z,11.18
2023-09-28T10:43:37.777Z,4.63
2023-09-28T10:46:06.894Z,5.20
2023-09-28T10:48:40.945Z,6.85
2023-09-28T10:51:14.107Z,7.93
2023-09-28T10:53:42.550Z,5.18
2023-09-28T10:56:12.211Z,5.10
2023-09-28T10:58:42.126Z,6.55
2023-09-28T11:01:10.244Z,7.07
2023-09-28T11:03:39.990Z,7.72
2023-09-28T11:06:11.193Z,7.18
2023-09-28T11:08:41.714Z,5.33
2023-09-28T11:11:09.667Z,8.25
2023-09-28T11:13:37.576Z,6.97
2023-09-28T11:16:05.954Z,7.13
2023-09-28T11:18:33.878Z,4.88
2023-09-28T11:21:04.506Z,6.63
2023-09-28T11:23:32.435Z,6.35
2023-09-28T11:26:01.851Z,5.72
2023-09-28T11:28:30.864Z,5.80
2023-09-28T11:31:10.088Z,6.10
2023-09-28T11:33:38.533Z,4.90
2023-09-28T11:36:07.279Z,7.28
2023-09-28T11:38:35.659Z,6.38
2023-09-28T11:41:06.376Z,6.75
2023-09-28T11:43:35.833Z,6.47
2023-09-28T11:46:04.611Z,5.35
2023-09-28T11:48:32.478Z,3.75
2023-09-28T11:51:00.824Z,3.90
2023-09-28T11:53:28.643Z,6.22
2023-09-28T11:55:56.619Z,6.68
2023-09-28T11:58:27.055Z,5.50
2023-09-28T12:00:55.065Z,7.07
2023-09-28T12:03:23.061Z,5.07
2023-09-28T12:05:51.002Z,7.18
2023-09-28T12:08:19.144Z,6.05
2023-09-28T12:10:46.998Z,4.55
2023-09-28T12:13:14.887Z,4.78
2023-09-28T12:15:44.141Z,4.60
2023-09-28T12:18:12.184Z,7.00
2023-09-28T12:20:40.077Z,4.63
2023-09-28T12:23:08.016Z,5.28
2023-09-28T12:25:36.657Z,7.07
2023-09-28T12:28:04.740Z,4.13
2023-09-28T12:30:33.108Z,5.95
2023-09-28T12:33:03.147Z,5.30
2023-09-28T12:35:31.035Z,6.43
2023-09-28T12:37:59.013Z,4.50
2023-09-28T12:40:26.843Z,7.05
2023-09-28T12:42:54.658Z,3.67
2023-09-28T12:45:22.584Z,7.22
2023-09-28T12:47:50.510Z,7.82
2023-09-28T12:50:20.231Z,6.82
2023-09-28T12:52:49.147Z,6.13
2023-09-28T12:55:17.047Z,4.32
2023-09-28T12:57:45.209Z,4.68
2023-09-28T13:00:14.435Z,6.00
2023-09-28T13:02:44.374Z,3.92
2023-09-28T13:05:12.916Z,3.75
2023-09-28T13:07:42.365Z,4.25
2023-09-28T13:10:13.775Z,8.02
2023-09-28T13:12:42.775Z,3.65
2023-09-28T13:15:13.205Z,5.45
2023-09-28T13:17:41.374Z,8.63
2023-09-28T13:20:12.437Z,8.68
2023-09-28T13:22:41.794Z,4.00
2023-09-28T13:25:11.012Z,4.80
2023-09-28T13:27:38.850Z,6.70
2023-09-28T13:30:12.738Z,5.40
2023-09-28T13:32:40.806Z,5.43
2023-09-28T13:35:12.088Z,4.50
2023-09-28T13:37:40.303Z,6.17
2023-09-28T13:40:18.167Z,4.18
2023-09-28T13:42:46.269Z,5.05
2023-09-28T13:45:14.355Z,4.90
2023-09-28T13:47:43.335Z,6.72
2023-09-28T13:50:12.396Z,4.97
2023-09-28T13:52:40.383Z,2.97
2023-09-28T13:55:10.613Z,5.47
2023-09-28T13:57:40.564Z,4.78
2023-09-28T14:00:15.333Z,4.43
2023-09-28T14:02:43.832Z,4.80
2023-09-28T14:05:11.962Z,4.22
2023-09-28T14:07:39.770Z,5.13
2023-09-28T14:10:10.250Z,2.53
2023-09-28T14:12:38.090Z,2.70
2023-09-28T14:15:07.934Z,2.80
2023-09-28T14:17:38.744Z,5.68
2023-09-28T14:20:11.896Z,5.20
2023-09-28T14:22:40.722Z,4.70
2023-09-28T14:25:10.920Z,5.38
2023-09-28T14:27:38.799Z,4.50
2023-09-28T14:30:07.997Z,4.25
2023-09-28T14:32:36.606Z,4.38
2023-09-28T14:35:05.189Z,6.68
2023-09-28T14:37:33.663Z,3.88
2023-09-28T14:40:01.871Z,2.60
2023-09-28T14:42:32.898Z,5.10
2023-09-28T14:45:00.960Z,4.00
2023-09-28T14:47:29.327Z,3.13
2023-09-28T14:49:58.492Z,5.13
2023-09-28T14:52:26.310Z,3.55
2023-09-28T14:54:54.084Z,4.38
2023-09-28T14:57:21.847Z,3.80
2023-09-28T14:59:51.255Z,2.97
2023-09-28T15:02:19.194Z,4.05
2023-09-28T15:04:47.049Z,3.55
2023-09-28T15:07:14.814Z,4.38
2023-09-28T15:09:43.174Z,5.40
2023-09-28T15:12:11.015Z,4.10
2023-09-28T15:14:39.593Z,4.38
2023-09-28T15:17:08.800Z,5.55
2023-09-28T15:19:36.642Z,4.80
2023-09-28T15:22:04.829Z,4.43
2023-09-28T15:24:34.075Z,4.43
2023-09-28T15:27:01.980Z,5.60
2023-09-28T15:29:29.881Z,2.88
2023-09-28T15:31:58.103Z,2.95
2023-09-28T15:34:27.338Z,3.58
2023-09-28T15:36:55.212Z,5.57
2023-09-28T15:39:23.021Z,3.60
2023-09-28T15:41:50.933Z,4.03
2023-09-28T15:44:18.822Z,3.88
2023-09-28T15:46:47.125Z,5.15
2023-09-28T15:49:15.923Z,5.53
2023-09-28T15:51:45.242Z,4.85
2023-09-28T15:54:13.161Z,6.30
2023-09-28T15:56:41.031Z,2.63
2023-09-28T15:59:09.014Z,41.95
2023-09-28T16:01:38.651Z,7.45
2023-09-28T16:04:07.561Z,5.13
2023-09-28T16:06:35.533Z,5.05
2023-09-28T16:09:05.398Z,4.05
2023-09-28T16:11:33.331Z,3.45
2023-09-28T16:14:01.363Z,4.55
2023-09-28T16:16:29.548Z,4.15
2023-09-28T16:18:57.494Z,4.70
2023-09-28T16:21:25.379Z,5.38
2023-09-28T16:23:54.863Z,6.75
2023-09-28T16:26:25.271Z,4.80
2023-09-28T16:28:53.343Z,4.20
2023-09-28T16:31:21.163Z,3.92
2023-09-28T16:33:49.023Z,4.80
2023-09-28T16:36:16.845Z,5.70
2023-09-28T16:38:44.751Z,4.88
2023-09-28T16:41:12.666Z,4.35
2023-09-28T16:43:41.876Z,5.10
2023-09-28T16:46:09.739Z,5.30
2023-09-28T16:48:38.011Z,6.32
2023-09-28T16:51:05.897Z,4.45
2023-09-28T16:53:33.719Z,9.32
2023-09-28T16:56:01.618Z,9.27
2023-09-28T16:58:29.545Z,8.45
2023-09-28T17:00:59.267Z,8.77
2023-09-28T17:03:27.421Z,6.05
2023-09-28T17:05:55.329Z,5.95
2023-09-28T17:08:23.237Z,8.52
2023-09-28T17:10:52.221Z,4.03
2023-09-28T17:13:20.067Z,5.30
2023-09-28T17:15:49.720Z,3.67
2023-09-28T17:18:21.768Z,3.78
2023-09-28T17:20:50.541Z,4.55
2023-09-28T17:23:18.567Z,5.10
2023-09-28T17:25:46.665Z,5.38
2023-09-28T17:28:14.552Z,6.38
2023-09-28T17:30:42.487Z,3.85
2023-09-28T17:33:10.815Z,4.95
2023-09-28T17:35:40.082Z,7.55
2023-09-28T17:38:08.060Z,4.13
2023-09-28T17:40:35.937Z,5.70
2023-09-28T17:43:04.414Z,3.45
2023-09-28T17:45:33.743Z,6.15
2023-09-28T17:48:01.806Z,9.27
2023-09-28T17:50:29.762Z,4.50
2023-09-28T17:52:59.082Z,5.28
2023-09-28T17:55:26.865Z,8.85
2023-09-28T17:57:55.072Z,6.05
2023-09-28T18:00:23.194Z,3.88
2023-09-28T18:02:51.184Z,7.53
2023-09-28T18:05:19.111Z,9.48
2023-09-28T18:07:46.895Z,5.63
2023-09-28T18:10:17.069Z,5.70
2023-09-28T18:12:45.456Z,6.32
2023-09-28T18:15:14.320Z,6.80
2023-09-28T18:17:42.263Z,6.07
2023-09-28T18:20:10.703Z,5.75
2023-09-28T18:22:38.845Z,9.52
2023-09-28T18:25:09.016Z,10.88
2023-09-28T18:27:38.205Z,7.55
2023-09-28T18:30:09.797Z,7.07
2023-09-28T18:32:37.843Z,8.40
2023-09-28T18:35:07.709Z,10.52
2023-09-28T18:37:35.897Z,7.72
2023-09-28T18:40:03.791Z,7.70
2023-09-28T18:42:31.686Z,8.35
2023-09-28T18:45:01.360Z,9.95
2023-09-28T18:47:29.718Z,10.82
2023-09-28T18:49:58.405Z,8.88
2023-09-28T18:52:26.230Z,9.65
2023-09-28T18:54:54.077Z,8.63
2023-09-28T18:57:22.455Z,11.10
2023-09-28T18:59:50.757Z,7.20
2023-09-28T19:02:20.057Z,9.13
2023-09-28T19:04:48.020Z,10.55
2023-09-28T19:07:21.295Z,9.85
2023-09-28T19:09:49.282Z,11.57
2023-09-28T19:12:17.165Z,8.25
2023-09-28T19:14:45.208Z,14.98
2023-09-28T19:17:13.186Z,11.73
2023-09-28T19:19:42.541Z,10.77
2023-09-28T19:22:10.361Z,11.80
2023-09-28T19:24:38.452Z,10.30
2023-09-28T19:27:07.531Z,8.27
2023-09-28T19:29:35.413Z,16.58
2023-09-28T19:32:03.240Z,11.50
2023-09-28T19:34:31.095Z,11.43
2023-09-28T19:37:00.441Z,10.73
2023-09-28T19:39:30.046Z,11.05
2023-09-28T19:41:57.996Z,10.02
2023-09-28T19:44:26.612Z,9.15
2023-09-28T19:46:54.495Z,10.00
2023-09-28T19:49:22.947Z,13.05
2023-09-28T19:51:51.312Z,10.57
2023-09-28T19:54:20.453Z,8.23
2023-09-28T19:56:48.491Z,15.68
2023-09-28T19:59:16.872Z,9.85
2023-09-28T20:01:45.133Z,9.43
2023-09-28T20:04:13.012Z,10.95
2023-09-28T20:06:40.842Z,8.13
2023-09-28T20:09:08.707Z,13.48
2023-09-28T20:11:38.807Z,10.88
2023-09-28T20:14:06.650Z,12.15
2023-09-28T20:16:34.558Z,8.95
2023-09-28T20:19:02.443Z,10.00
2023-09-28T20:21:30.217Z,7.65
2023-09-28T20:23:58.614Z,8.15
2023-09-28T20:26:26.797Z,9.35
2023-09-28T20:28:56.077Z,10.50
2023-09-28T20:31:23.897Z,6.50
2023-09-28T20:33:53.057Z,11.60
2023-09-28T20:36:21.311Z,9.32
2023-09-28T20:38:49.221Z,7.50
2023-09-28T20:41:17.051Z,8.35
2023-09-28T20:43:44.895Z,12.63
2023-09-28T20:46:18.048Z,9.10
2023-09-28T20:48:46.343Z,14.13
2023-09-28T20:51:15.367Z,10.63
2023-09-28T20:53:43.314Z,12.27
2023-09-28T20:56:15.457Z,11.85
2023-09-28T20:58:44.004Z,10.25
2023-09-28T21:01:12.078Z,9.48
2023-09-28T21:03:41.561Z,13.45
2023-09-28T21:06:11.453Z,8.98
2023-09-28T21:08:40.655Z,7.90
2023-09-28T21:11:08.714Z,10.50
2023-09-28T21:13:36.564Z,13.13
2023-09-28T21:16:04.588Z,12.02
2023-09-28T21:18:32.682Z,10.05
2023-09-28T21:21:01.974Z,12.05
2023-09-28T21:23:29.886Z,9.68
2023-09-28T21:25:57.739Z,9.75
2023-09-28T21:28:25.584Z,9.00
2023-09-28T21:30:53.368Z,8.15
2023-09-28T21:33:21.337Z,9.90
2023-09-28T21:35:49.269Z,8.27
2023-09-28T21:38:18.507Z,13.52
2023-09-28T21:40:46.373Z,7.13
2023-09-28T21:43:14.172Z,9.30
2023-09-28T21:45:42.014Z,9.88
2023-09-28T21:48:09.891Z,10.82
2023-09-28T21:50:37.813Z,8.80
2023-09-28T21:53:06.009Z,9.18
2023-09-28T21:55:35.179Z,9.13
2023-09-28T21:58:03.004Z,12.95
2023-09-28T22:00:36.644Z,8.75
2023-09-28T22:06:36.085Z,7.80
2023-09-28T22:09:06.387Z,11.85
2023-09-28T22:11:34.573Z,8.93
2023-09-28T22:14:03.038Z,7.22
2023-09-28T22:16:30.989Z,8.93
2023-09-28T22:18:59.114Z,8.75
2023-09-28T22:21:27.532Z,8.35
2023-09-28T22:23:57.280Z,7.20
2023-09-28T22:26:25.225Z,8.88
2023-09-28T22:28:53.260Z,10.13
2023-09-28T22:31:21.290Z,11.32
2023-09-28T22:33:49.222Z,9.48
2023-09-28T22:36:17.036Z,10.68
2023-09-28T22:38:45.133Z,9.68
2023-09-28T22:41:16.867Z,7.60
2023-09-28T22:43:44.911Z,11.87
2023-09-28T22:46:12.772Z,8.10
2023-09-28T22:48:40.686Z,7.82
2023-09-28T22:51:08.510Z,10.00
2023-09-28T22:53:36.987Z,8.02
2023-09-28T22:56:04.890Z,7.97
2023-09-28T22:58:34.121Z,9.98
2023-09-28T23:01:01.936Z,9.13
2023-09-28T23:03:29.894Z,10.85
2023-09-28T23:05:57.787Z,13.30
2023-09-28T23:08:25.677Z,9.05
2023-09-28T23:10:55.345Z,8.05
2023-09-28T23:13:23.197Z,8.68
2023-09-28T23:15:52.392Z,7.60
2023-09-28T23:18:20.306Z,8.52
2023-09-28T23:20:48.220Z,11.32
2023-09-28T23:23:16.855Z,8.35
2023-09-28T23:25:44.872Z,12.52
2023-09-28T23:28:12.693Z,6.22
2023-09-28T23:30:40.809Z,8.93
2023-09-28T23:33:10.293Z,9.82
2023-09-28T23:35:38.877Z,10.43
2023-09-28T23:38:07.931Z,8.00
2023-09-28T23:40:35.778Z,7.55
2023-09-28T23:43:03.885Z,7.13
2023-09-28T23:45:35.184Z,8.77
2023-09-28T23:48:05.494Z,8.45
2023-09-28T23:50:35.911Z,5.88
2023-09-28T23:53:06.450Z,12.40
2023-09-28T23:55:35.177Z,10.43
2023-09-28T23:58:03.510Z,10.55
